This is the latest recevied weather packets stored in our database for station/object N4OGP-WX. If no packets are shown the sender has not sent any weather packets the latest 10 day(s).
| Time | Temp. | Humidity | Pressure | Rain* | Wind** | Luminosity | Snow |
|---|---|---|---|---|---|---|---|
| 1777621011 | 21.11° C | 87% | 1009 hPa | 0 mm | - | - | - |
| 1777620951 | 21.11° C | 87% | 1009 hPa | 0 mm | - | - | - |
| 1777620891 | 23.89° C | 42% | 1020.4 hPa | 0 mm | - | - | - |
| 1777620831 | 21.11° C | 87% | 1009 hPa | 0 mm | - | - | - |
| 1777620771 | 21.11° C | 87% | 1009.1 hPa | 0 mm | - | - | - |
| 1777620681 | 21.11° C | 87% | 1009.1 hPa | 0 mm | - | - | - |
| 1777620621 | 23.89° C | 42% | 1020.4 hPa | 0 mm | - | - | - |
| 1777620531 | 23.89° C | 42% | 1020.4 hPa | 0 mm | - | - | - |
| 1777620471 | 23.89° C | 42% | 1020.4 hPa | 0 mm | - | - | - |
| 1777620411 | 23.89° C | 42% | 1020.4 hPa | 0 mm | - | - | - |
| 1777620351 | 23.89° C | 42% | 1020.4 hPa | 0 mm | - | - | - |
| 1777620261 | 21.11° C | 87% | 1009.1 hPa | 0 mm | - | - | - |
| 1777620200 | 21.11° C | 87% | 1009.1 hPa | 0 mm | - | - | - |
| 1777620141 | 23.89° C | 42% | 1020.4 hPa | 0 mm | - | - | - |
| 1777620081 | 23.89° C | 42% | 1020.4 hPa | 0 mm | - | - | - |
| 1777619991 | 21.11° C | 87% | 1009.1 hPa | 0 mm | - | - | - |
| 1777619901 | 23.89° C | 42% | 1020.4 hPa | 0 mm | - | - | - |
| 1777619841 | 21.11° C | 87% | 1009.1 hPa | 0 mm | - | - | - |
| 1777619750 | 21.11° C | 86% | 1009 hPa | 0 mm | - | - | - |
| 1777619690 | 23.89° C | 42% | 1020.4 hPa | 0 mm | - | - | - |
| 1777619631 | 23.89° C | 42% | 1020.4 hPa | 0 mm | - | - | - |
| 1777619541 | 21.11° C | 86% | 1009 hPa | 0 mm | - | - | - |
| 1777619481 | 21.11° C | 86% | 1009 hPa | 0 mm | - | - | - |
| 1777619390 | 23.89° C | 42% | 1020.4 hPa | 0 mm | - | - | - |
| 1777619330 | 21.11° C | 86% | 1009.1 hPa | 0 mm | - | - | - |
* Rain latest hour (hover to see other rain measurements)
** Current wind speed in m/s (hover to see current wind gust speed)